sensor_id;sensor_type;location;lat;lon;timestamp;temperature;humidity
20712;DHT22;10517;50.742;4.224;2024-02-26T00:00:34;7.10;99.90
20712;DHT22;10517;50.742;4.224;2024-02-26T00:03:00;7.10;99.90
20712;DHT22;10517;50.742;4.224;2024-02-26T00:05:26;7.10;99.90
20712;DHT22;10517;50.742;4.224;2024-02-26T00:07:51;7.10;99.90
20712;DHT22;10517;50.742;4.224;2024-02-26T00:10:17;7.10;99.90
20712;DHT22;10517;50.742;4.224;2024-02-26T00:12:43;7.00;99.90
20712;DHT22;10517;50.742;4.224;2024-02-26T00:15:09;6.90;99.90
20712;DHT22;10517;50.742;4.224;2024-02-26T00:17:35;7.00;99.90
20712;DHT22;10517;50.742;4.224;2024-02-26T00:20:02;7.00;99.90
20712;DHT22;10517;50.742;4.224;2024-02-26T00:22:30;7.00;99.90
20712;DHT22;10517;50.742;4.224;2024-02-26T00:24:56;6.90;99.90
20712;DHT22;10517;50.742;4.224;2024-02-26T00:27:21;6.90;99.90
20712;DHT22;10517;50.742;4.224;2024-02-26T00:29:47;6.90;99.90
20712;DHT22;10517;50.742;4.224;2024-02-26T00:32:12;6.90;99.90
20712;DHT22;10517;50.742;4.224;2024-02-26T00:34:38;7.00;99.90
20712;DHT22;10517;50.742;4.224;2024-02-26T00:37:04;7.00;99.90
20712;DHT22;10517;50.742;4.224;2024-02-26T00:39:29;6.90;99.90
20712;DHT22;10517;50.742;4.224;2024-02-26T00:41:55;6.80;99.90
20712;DHT22;10517;50.742;4.224;2024-02-26T00:44:20;6.80;99.90
20712;DHT22;10517;50.742;4.224;2024-02-26T00:46:46;6.80;99.90
20712;DHT22;10517;50.742;4.224;2024-02-26T00:49:11;6.90;99.90
20712;DHT22;10517;50.742;4.224;2024-02-26T00:51:37;6.90;99.90
20712;DHT22;10517;50.742;4.224;2024-02-26T00:54:03;6.80;99.90
20712;DHT22;10517;50.742;4.224;2024-02-26T00:56:28;6.80;99.90
20712;DHT22;10517;50.742;4.224;2024-02-26T00:58:54;6.80;99.90
20712;DHT22;10517;50.742;4.224;2024-02-26T01:01:19;6.70;99.90
20712;DHT22;10517;50.742;4.224;2024-02-26T01:03:45;6.70;99.90
20712;DHT22;10517;50.742;4.224;2024-02-26T01:06:11;6.80;99.90
20712;DHT22;10517;50.742;4.224;2024-02-26T01:08:36;6.70;99.90
20712;DHT22;10517;50.742;4.224;2024-02-26T01:11:03;6.70;99.90
20712;DHT22;10517;50.742;4.224;2024-02-26T01:13:29;6.70;99.90
20712;DHT22;10517;50.742;4.224;2024-02-26T01:15:54;6.60;99.90
20712;DHT22;10517;50.742;4.224;2024-02-26T01:18:20;6.60;99.90
20712;DHT22;10517;50.742;4.224;2024-02-26T01:20:46;6.60;99.90
20712;DHT22;10517;50.742;4.224;2024-02-26T01:23:12;6.60;99.90
20712;DHT22;10517;50.742;4.224;2024-02-26T01:25:38;6.60;99.90
20712;DHT22;10517;50.742;4.224;2024-02-26T01:28:04;6.60;99.90
20712;DHT22;10517;50.742;4.224;2024-02-26T01:30:31;6.60;99.90
20712;DHT22;10517;50.742;4.224;2024-02-26T01:32:57;6.60;99.90
20712;DHT22;10517;50.742;4.224;2024-02-26T01:35:22;6.60;99.90
20712;DHT22;10517;50.742;4.224;2024-02-26T01:37:48;6.60;99.90
20712;DHT22;10517;50.742;4.224;2024-02-26T01:40:15;6.70;99.90
20712;DHT22;10517;50.742;4.224;2024-02-26T01:42:45;6.60;99.90
20712;DHT22;10517;50.742;4.224;2024-02-26T01:45:16;6.60;99.90
20712;DHT22;10517;50.742;4.224;2024-02-26T01:47:48;6.60;99.90
20712;DHT22;10517;50.742;4.224;2024-02-26T01:50:14;6.60;99.90
20712;DHT22;10517;50.742;4.224;2024-02-26T01:52:40;6.60;99.90
20712;DHT22;10517;50.742;4.224;2024-02-26T01:55:07;6.60;99.90
20712;DHT22;10517;50.742;4.224;2024-02-26T01:57:33;6.70;99.90
20712;DHT22;10517;50.742;4.224;2024-02-26T01:59:59;6.70;99.90
20712;DHT22;10517;50.742;4.224;2024-02-26T02:02:25;6.70;99.90
20712;DHT22;10517;50.742;4.224;2024-02-26T02:04:51;6.60;99.90
20712;DHT22;10517;50.742;4.224;2024-02-26T02:07:18;6.60;99.90
20712;DHT22;10517;50.742;4.224;2024-02-26T02:09:44;6.50;99.90
20712;DHT22;10517;50.742;4.224;2024-02-26T02:12:11;6.50;99.90
20712;DHT22;10517;50.742;4.224;2024-02-26T02:14:36;6.50;99.90
20712;DHT22;10517;50.742;4.224;2024-02-26T02:17:02;6.50;99.90
20712;DHT22;10517;50.742;4.224;2024-02-26T02:19:27;6.60;99.90
20712;DHT22;10517;50.742;4.224;2024-02-26T02:21:53;6.60;99.90
20712;DHT22;10517;50.742;4.224;2024-02-26T02:24:18;6.50;99.90
20712;DHT22;10517;50.742;4.224;2024-02-26T02:26:44;6.40;99.90
20712;DHT22;10517;50.742;4.224;2024-02-26T02:29:10;6.40;99.90
20712;DHT22;10517;50.742;4.224;2024-02-26T02:31:36;6.40;99.90
20712;DHT22;10517;50.742;4.224;2024-02-26T02:34:02;6.40;99.90
20712;DHT22;10517;50.742;4.224;2024-02-26T02:36:28;6.50;99.90
20712;DHT22;10517;50.742;4.224;2024-02-26T02:38:54;6.50;99.90
20712;DHT22;10517;50.742;4.224;2024-02-26T02:41:19;6.50;99.90
20712;DHT22;10517;50.742;4.224;2024-02-26T02:43:45;6.60;99.90
20712;DHT22;10517;50.742;4.224;2024-02-26T02:46:11;6.50;99.90
20712;DHT22;10517;50.742;4.224;2024-02-26T02:48:41;6.50;99.90
20712;DHT22;10517;50.742;4.224;2024-02-26T02:51:06;6.50;99.90
20712;DHT22;10517;50.742;4.224;2024-02-26T02:53:32;6.50;99.90
20712;DHT22;10517;50.742;4.224;2024-02-26T02:55:57;6.50;99.90
20712;DHT22;10517;50.742;4.224;2024-02-26T02:58:23;6.50;99.90
20712;DHT22;10517;50.742;4.224;2024-02-26T03:00:48;6.50;99.90
20712;DHT22;10517;50.742;4.224;2024-02-26T03:03:14;6.50;99.90
20712;DHT22;10517;50.742;4.224;2024-02-26T03:05:39;6.40;99.90
20712;DHT22;10517;50.742;4.224;2024-02-26T03:08:05;6.40;99.90
20712;DHT22;10517;50.742;4.224;2024-02-26T03:10:31;6.40;99.90
20712;DHT22;10517;50.742;4.224;2024-02-26T03:12:56;6.40;99.90
20712;DHT22;10517;50.742;4.224;2024-02-26T03:15:22;6.40;99.90
20712;DHT22;10517;50.742;4.224;2024-02-26T03:17:48;6.40;99.90
20712;DHT22;10517;50.742;4.224;2024-02-26T03:20:13;6.40;99.90
20712;DHT22;10517;50.742;4.224;2024-02-26T03:22:39;6.40;99.90
20712;DHT22;10517;50.742;4.224;2024-02-26T03:25:06;6.40;99.90
20712;DHT22;10517;50.742;4.224;2024-02-26T03:27:32;6.40;99.90
20712;DHT22;10517;50.742;4.224;2024-02-26T03:29:57;6.40;99.90
20712;DHT22;10517;50.742;4.224;2024-02-26T03:32:23;6.30;99.90
20712;DHT22;10517;50.742;4.224;2024-02-26T03:34:49;6.40;99.90
20712;DHT22;10517;50.742;4.224;2024-02-26T03:37:14;6.30;99.90
20712;DHT22;10517;50.742;4.224;2024-02-26T03:39:40;6.40;99.90
20712;DHT22;10517;50.742;4.224;2024-02-26T03:42:06;6.40;99.90
20712;DHT22;10517;50.742;4.224;2024-02-26T03:44:31;6.40;99.90
20712;DHT22;10517;50.742;4.224;2024-02-26T03:46:57;6.30;99.90
20712;DHT22;10517;50.742;4.224;2024-02-26T03:49:22;6.40;99.90
20712;DHT22;10517;50.742;4.224;2024-02-26T03:51:48;6.40;99.90
20712;DHT22;10517;50.742;4.224;2024-02-26T03:54:14;6.40;99.90
20712;DHT22;10517;50.742;4.224;2024-02-26T03:56:39;6.40;99.90
20712;DHT22;10517;50.742;4.224;2024-02-26T03:59:05;6.40;99.90
20712;DHT22;10517;50.742;4.224;2024-02-26T04:01:30;6.40;99.90
20712;DHT22;10517;50.742;4.224;2024-02-26T04:03:56;6.40;99.90
20712;DHT22;10517;50.742;4.224;2024-02-26T04:06:22;6.40;99.90
20712;DHT22;10517;50.742;4.224;2024-02-26T04:08:48;6.40;99.90
20712;DHT22;10517;50.742;4.224;2024-02-26T04:11:14;6.30;99.90
20712;DHT22;10517;50.742;4.224;2024-02-26T04:13:43;6.30;99.90
20712;DHT22;10517;50.742;4.224;2024-02-26T04:16:11;6.30;99.90
20712;DHT22;10517;50.742;4.224;2024-02-26T04:18:37;6.30;99.90
20712;DHT22;10517;50.742;4.224;2024-02-26T04:21:03;6.30;99.90
20712;DHT22;10517;50.742;4.224;2024-02-26T04:23:30;6.30;99.90
20712;DHT22;10517;50.742;4.224;2024-02-26T04:25:56;6.40;99.90
20712;DHT22;10517;50.742;4.224;2024-02-26T04:28:21;6.30;99.90
20712;DHT22;10517;50.742;4.224;2024-02-26T04:30:47;6.30;99.90
20712;DHT22;10517;50.742;4.224;2024-02-26T04:33:14;6.30;99.90
20712;DHT22;10517;50.742;4.224;2024-02-26T04:35:39;6.30;99.90
20712;DHT22;10517;50.742;4.224;2024-02-26T04:38:05;6.30;99.90
20712;DHT22;10517;50.742;4.224;2024-02-26T04:40:30;6.30;99.90
20712;DHT22;10517;50.742;4.224;2024-02-26T04:42:56;6.30;99.90
20712;DHT22;10517;50.742;4.224;2024-02-26T04:45:22;6.30;99.90
20712;DHT22;10517;50.742;4.224;2024-02-26T04:47:48;6.30;99.90
20712;DHT22;10517;50.742;4.224;2024-02-26T04:50:13;6.30;99.90
20712;DHT22;10517;50.742;4.224;2024-02-26T04:52:39;6.20;99.90
20712;DHT22;10517;50.742;4.224;2024-02-26T04:55:05;6.20;99.90
20712;DHT22;10517;50.742;4.224;2024-02-26T04:57:30;6.20;99.90
20712;DHT22;10517;50.742;4.224;2024-02-26T04:59:56;6.20;99.90
20712;DHT22;10517;50.742;4.224;2024-02-26T05:02:21;6.20;99.90
20712;DHT22;10517;50.742;4.224;2024-02-26T05:04:47;6.20;99.90
20712;DHT22;10517;50.742;4.224;2024-02-26T05:07:13;6.20;99.90
20712;DHT22;10517;50.742;4.224;2024-02-26T05:09:38;6.20;99.90
20712;DHT22;10517;50.742;4.224;2024-02-26T05:12:04;6.20;99.90
20712;DHT22;10517;50.742;4.224;2024-02-26T05:14:30;6.20;99.90
20712;DHT22;10517;50.742;4.224;2024-02-26T05:16:56;6.20;99.90
20712;DHT22;10517;50.742;4.224;2024-02-26T05:19:21;6.20;99.90
20712;DHT22;10517;50.742;4.224;2024-02-26T05:21:47;6.20;99.90
20712;DHT22;10517;50.742;4.224;2024-02-26T05:24:14;6.10;99.90
20712;DHT22;10517;50.742;4.224;2024-02-26T05:26:41;6.10;99.90
20712;DHT22;10517;50.742;4.224;2024-02-26T05:29:06;6.10;99.90
20712;DHT22;10517;50.742;4.224;2024-02-26T05:31:32;6.10;99.90
20712;DHT22;10517;50.742;4.224;2024-02-26T05:33:57;6.10;99.90
20712;DHT22;10517;50.742;4.224;2024-02-26T05:36:23;6.10;99.90
20712;DHT22;10517;50.742;4.224;2024-02-26T05:38:49;6.10;99.90
20712;DHT22;10517;50.742;4.224;2024-02-26T05:41:16;6.10;99.90
20712;DHT22;10517;50.742;4.224;2024-02-26T05:43:42;6.10;99.90
20712;DHT22;10517;50.742;4.224;2024-02-26T05:46:08;6.10;99.90
20712;DHT22;10517;50.742;4.224;2024-02-26T05:48:33;6.10;99.90
20712;DHT22;10517;50.742;4.224;2024-02-26T05:50:59;6.10;99.90
20712;DHT22;10517;50.742;4.224;2024-02-26T05:53:25;6.10;99.90
20712;DHT22;10517;50.742;4.224;2024-02-26T05:55:50;6.10;99.90
20712;DHT22;10517;50.742;4.224;2024-02-26T05:58:16;6.10;99.90
20712;DHT22;10517;50.742;4.224;2024-02-26T06:00:41;6.10;99.90
20712;DHT22;10517;50.742;4.224;2024-02-26T06:03:07;6.10;99.90
20712;DHT22;10517;50.742;4.224;2024-02-26T06:05:33;6.20;99.90
20712;DHT22;10517;50.742;4.224;2024-02-26T06:07:58;6.20;99.90
20712;DHT22;10517;50.742;4.224;2024-02-26T06:10:24;6.10;99.90
20712;DHT22;10517;50.742;4.224;2024-02-26T06:12:50;6.10;99.90
20712;DHT22;10517;50.742;4.224;2024-02-26T06:15:15;6.10;99.90
20712;DHT22;10517;50.742;4.224;2024-02-26T06:17:41;6.10;99.90
20712;DHT22;10517;50.742;4.224;2024-02-26T06:20:07;6.10;99.90
20712;DHT22;10517;50.742;4.224;2024-02-26T06:22:37;6.10;99.90
20712;DHT22;10517;50.742;4.224;2024-02-26T06:25:02;6.10;99.90
20712;DHT22;10517;50.742;4.224;2024-02-26T06:27:28;6.10;99.90
20712;DHT22;10517;50.742;4.224;2024-02-26T06:29:54;6.10;99.90
20712;DHT22;10517;50.742;4.224;2024-02-26T06:32:19;6.10;99.90
20712;DHT22;10517;50.742;4.224;2024-02-26T06:34:45;6.20;99.90
20712;DHT22;10517;50.742;4.224;2024-02-26T06:37:10;6.10;99.90
20712;DHT22;10517;50.742;4.224;2024-02-26T06:39:36;6.10;99.90
20712;DHT22;10517;50.742;4.224;2024-02-26T06:42:01;6.10;99.90
20712;DHT22;10517;50.742;4.224;2024-02-26T06:44:28;6.10;99.90
20712;DHT22;10517;50.742;4.224;2024-02-26T06:46:59;6.10;99.90
20712;DHT22;10517;50.742;4.224;2024-02-26T06:49:25;6.10;99.90
20712;DHT22;10517;50.742;4.224;2024-02-26T06:51:51;6.10;99.90
20712;DHT22;10517;50.742;4.224;2024-02-26T06:54:17;6.10;99.90
20712;DHT22;10517;50.742;4.224;2024-02-26T06:56:42;6.10;99.90
20712;DHT22;10517;50.742;4.224;2024-02-26T06:59:08;6.10;99.90
20712;DHT22;10517;50.742;4.224;2024-02-26T07:01:33;6.10;99.90
20712;DHT22;10517;50.742;4.224;2024-02-26T07:03:59;6.10;99.90
20712;DHT22;10517;50.742;4.224;2024-02-26T07:06:25;6.10;99.90
20712;DHT22;10517;50.742;4.224;2024-02-26T07:08:50;6.10;99.90
20712;DHT22;10517;50.742;4.224;2024-02-26T07:11:16;6.10;99.90
20712;DHT22;10517;50.742;4.224;2024-02-26T07:13:41;6.10;99.90
20712;DHT22;10517;50.742;4.224;2024-02-26T07:16:09;6.10;99.90
20712;DHT22;10517;50.742;4.224;2024-02-26T07:18:35;6.10;99.90
20712;DHT22;10517;50.742;4.224;2024-02-26T07:21:02;6.10;99.90
20712;DHT22;10517;50.742;4.224;2024-02-26T07:23:28;6.10;99.90
20712;DHT22;10517;50.742;4.224;2024-02-26T07:25:53;6.10;99.90
20712;DHT22;10517;50.742;4.224;2024-02-26T07:28:19;6.10;99.90
20712;DHT22;10517;50.742;4.224;2024-02-26T07:30:45;6.00;99.90
20712;DHT22;10517;50.742;4.224;2024-02-26T07:33:10;6.00;99.90
20712;DHT22;10517;50.742;4.224;2024-02-26T07:35:36;6.10;99.90
20712;DHT22;10517;50.742;4.224;2024-02-26T07:38:04;6.10;99.90
20712;DHT22;10517;50.742;4.224;2024-02-26T07:40:30;6.10;99.90
20712;DHT22;10517;50.742;4.224;2024-02-26T07:42:55;6.10;99.90
20712;DHT22;10517;50.742;4.224;2024-02-26T07:45:21;6.00;99.90
20712;DHT22;10517;50.742;4.224;2024-02-26T07:47:47;6.10;99.90
20712;DHT22;10517;50.742;4.224;2024-02-26T07:50:13;6.10;99.90
20712;DHT22;10517;50.742;4.224;2024-02-26T07:52:39;6.10;99.90
20712;DHT22;10517;50.742;4.224;2024-02-26T07:55:05;6.00;99.90
20712;DHT22;10517;50.742;4.224;2024-02-26T07:57:32;6.00;99.90
20712;DHT22;10517;50.742;4.224;2024-02-26T07:59:59;6.00;99.90
20712;DHT22;10517;50.742;4.224;2024-02-26T08:02:24;6.00;99.90
20712;DHT22;10517;50.742;4.224;2024-02-26T08:04:50;6.00;99.90
20712;DHT22;10517;50.742;4.224;2024-02-26T08:07:16;6.00;99.90
20712;DHT22;10517;50.742;4.224;2024-02-26T08:09:42;6.00;99.90
20712;DHT22;10517;50.742;4.224;2024-02-26T08:12:07;6.00;99.90
20712;DHT22;10517;50.742;4.224;2024-02-26T08:14:33;6.00;99.90
20712;DHT22;10517;50.742;4.224;2024-02-26T08:16:59;6.00;99.90
20712;DHT22;10517;50.742;4.224;2024-02-26T08:19:25;6.00;99.90
20712;DHT22;10517;50.742;4.224;2024-02-26T08:21:50;6.00;99.90
20712;DHT22;10517;50.742;4.224;2024-02-26T08:24:17;6.00;99.90
20712;DHT22;10517;50.742;4.224;2024-02-26T08:26:42;6.00;99.90
20712;DHT22;10517;50.742;4.224;2024-02-26T08:29:08;6.00;99.90
20712;DHT22;10517;50.742;4.224;2024-02-26T08:31:33;6.00;99.90
20712;DHT22;10517;50.742;4.224;2024-02-26T08:34:01;6.00;99.90
20712;DHT22;10517;50.742;4.224;2024-02-26T08:36:28;6.00;99.90
20712;DHT22;10517;50.742;4.224;2024-02-26T08:38:53;6.00;99.90
20712;DHT22;10517;50.742;4.224;2024-02-26T08:41:19;6.00;99.90
20712;DHT22;10517;50.742;4.224;2024-02-26T08:43:44;6.00;99.90
20712;DHT22;10517;50.742;4.224;2024-02-26T08:46:12;6.00;99.90
20712;DHT22;10517;50.742;4.224;2024-02-26T08:48:39;6.00;99.90
20712;DHT22;10517;50.742;4.224;2024-02-26T08:51:06;6.00;99.90
20712;DHT22;10517;50.742;4.224;2024-02-26T08:53:32;6.00;99.90
20712;DHT22;10517;50.742;4.224;2024-02-26T08:55:57;6.10;99.90
20712;DHT22;10517;50.742;4.224;2024-02-26T08:58:23;6.10;99.90
20712;DHT22;10517;50.742;4.224;2024-02-26T09:00:48;6.10;99.90
20712;DHT22;10517;50.742;4.224;2024-02-26T09:03:14;6.00;99.90
20712;DHT22;10517;50.742;4.224;2024-02-26T09:05:39;6.00;99.90
20712;DHT22;10517;50.742;4.224;2024-02-26T09:08:05;6.10;99.90
20712;DHT22;10517;50.742;4.224;2024-02-26T09:10:31;6.00;99.90
20712;DHT22;10517;50.742;4.224;2024-02-26T09:12:58;6.10;99.90
20712;DHT22;10517;50.742;4.224;2024-02-26T09:15:24;6.10;99.90
20712;DHT22;10517;50.742;4.224;2024-02-26T09:17:49;6.10;99.90
20712;DHT22;10517;50.742;4.224;2024-02-26T09:20:16;6.10;99.90
20712;DHT22;10517;50.742;4.224;2024-02-26T09:22:46;6.10;99.90
20712;DHT22;10517;50.742;4.224;2024-02-26T09:25:11;6.10;99.90
20712;DHT22;10517;50.742;4.224;2024-02-26T09:27:37;6.10;99.90
20712;DHT22;10517;50.742;4.224;2024-02-26T09:30:02;6.10;99.90
20712;DHT22;10517;50.742;4.224;2024-02-26T09:32:28;6.00;99.90
20712;DHT22;10517;50.742;4.224;2024-02-26T09:34:55;6.10;99.90
20712;DHT22;10517;50.742;4.224;2024-02-26T09:37:21;6.10;99.90
20712;DHT22;10517;50.742;4.224;2024-02-26T09:39:46;6.00;99.90
20712;DHT22;10517;50.742;4.224;2024-02-26T09:42:13;6.00;99.90
20712;DHT22;10517;50.742;4.224;2024-02-26T09:44:40;6.00;99.90
20712;DHT22;10517;50.742;4.224;2024-02-26T09:47:09;6.10;99.90
20712;DHT22;10517;50.742;4.224;2024-02-26T09:49:36;6.10;99.90
20712;DHT22;10517;50.742;4.224;2024-02-26T09:52:04;6.10;99.90
20712;DHT22;10517;50.742;4.224;2024-02-26T09:54:31;6.10;99.90
20712;DHT22;10517;50.742;4.224;2024-02-26T09:56:59;6.20;99.90
20712;DHT22;10517;50.742;4.224;2024-02-26T09:59:26;6.20;99.90
20712;DHT22;10517;50.742;4.224;2024-02-26T10:01:53;6.30;99.90
20712;DHT22;10517;50.742;4.224;2024-02-26T10:04:20;6.30;99.90
20712;DHT22;10517;50.742;4.224;2024-02-26T10:06:46;6.30;99.90
20712;DHT22;10517;50.742;4.224;2024-02-26T10:09:12;6.30;99.90
20712;DHT22;10517;50.742;4.224;2024-02-26T10:11:41;6.20;99.90
20712;DHT22;10517;50.742;4.224;2024-02-26T10:14:08;6.30;99.90
20712;DHT22;10517;50.742;4.224;2024-02-26T10:16:34;6.40;99.90
20712;DHT22;10517;50.742;4.224;2024-02-26T10:19:00;6.40;99.90
20712;DHT22;10517;50.742;4.224;2024-02-26T10:21:26;6.40;99.90
20712;DHT22;10517;50.742;4.224;2024-02-26T10:23:53;6.40;99.90
20712;DHT22;10517;50.742;4.224;2024-02-26T10:26:19;6.40;99.90
20712;DHT22;10517;50.742;4.224;2024-02-26T10:28:46;6.30;99.90
20712;DHT22;10517;50.742;4.224;2024-02-26T10:31:13;6.30;99.90
20712;DHT22;10517;50.742;4.224;2024-02-26T10:33:40;6.30;99.90
20712;DHT22;10517;50.742;4.224;2024-02-26T10:36:07;6.40;99.90
20712;DHT22;10517;50.742;4.224;2024-02-26T10:38:37;6.30;99.90
20712;DHT22;10517;50.742;4.224;2024-02-26T10:41:23;6.40;99.90
20712;DHT22;10517;50.742;4.224;2024-02-26T10:43:48;6.40;99.90
20712;DHT22;10517;50.742;4.224;2024-02-26T10:46:14;6.50;99.90
20712;DHT22;10517;50.742;4.224;2024-02-26T10:48:40;6.50;99.90
20712;DHT22;10517;50.742;4.224;2024-02-26T10:51:05;6.60;99.90
20712;DHT22;10517;50.742;4.224;2024-02-26T10:53:33;6.70;99.90
20712;DHT22;10517;50.742;4.224;2024-02-26T10:56:02;6.60;99.90
20712;DHT22;10517;50.742;4.224;2024-02-26T10:58:28;6.50;99.90
20712;DHT22;10517;50.742;4.224;2024-02-26T11:00:56;6.40;99.90
20712;DHT22;10517;50.742;4.224;2024-02-26T11:03:22;6.40;99.90
20712;DHT22;10517;50.742;4.224;2024-02-26T11:05:49;6.40;99.90
20712;DHT22;10517;50.742;4.224;2024-02-26T11:08:17;6.40;99.90
20712;DHT22;10517;50.742;4.224;2024-02-26T11:10:43;6.40;99.90
20712;DHT22;10517;50.742;4.224;2024-02-26T11:13:14;6.40;99.90
20712;DHT22;10517;50.742;4.224;2024-02-26T11:15:40;6.30;99.90
20712;DHT22;10517;50.742;4.224;2024-02-26T11:18:07;6.30;99.90
20712;DHT22;10517;50.742;4.224;2024-02-26T11:20:33;6.30;99.90
20712;DHT22;10517;50.742;4.224;2024-02-26T11:22:59;6.20;99.90
20712;DHT22;10517;50.742;4.224;2024-02-26T11:25:25;6.20;99.90
20712;DHT22;10517;50.742;4.224;2024-02-26T11:27:56;6.20;99.90
20712;DHT22;10517;50.742;4.224;2024-02-26T11:30:25;6.20;99.90
20712;DHT22;10517;50.742;4.224;2024-02-26T11:32:52;6.20;99.90
20712;DHT22;10517;50.742;4.224;2024-02-26T11:35:18;6.20;99.90
20712;DHT22;10517;50.742;4.224;2024-02-26T11:37:54;6.20;99.90
20712;DHT22;10517;50.742;4.224;2024-02-26T11:40:25;6.20;99.90
20712;DHT22;10517;50.742;4.224;2024-02-26T11:42:51;6.20;99.90
20712;DHT22;10517;50.742;4.224;2024-02-26T11:48:12;6.10;99.90
20712;DHT22;10517;50.742;4.224;2024-02-26T11:50:42;6.10;99.90
20712;DHT22;10517;50.742;4.224;2024-02-26T11:55:46;6.10;99.90
20712;DHT22;10517;50.742;4.224;2024-02-26T11:58:12;6.10;99.90
20712;DHT22;10517;50.742;4.224;2024-02-26T12:00:40;6.20;99.90
20712;DHT22;10517;50.742;4.224;2024-02-26T12:03:06;6.10;99.90
20712;DHT22;10517;50.742;4.224;2024-02-26T12:05:34;6.10;99.90
20712;DHT22;10517;50.742;4.224;2024-02-26T12:08:07;6.20;99.90
20712;DHT22;10517;50.742;4.224;2024-02-26T12:10:35;6.20;99.90
20712;DHT22;10517;50.742;4.224;2024-02-26T12:13:13;6.20;99.90
20712;DHT22;10517;50.742;4.224;2024-02-26T12:15:43;6.10;99.90
20712;DHT22;10517;50.742;4.224;2024-02-26T12:18:10;6.10;99.90
20712;DHT22;10517;50.742;4.224;2024-02-26T12:20:40;6.10;99.90
20712;DHT22;10517;50.742;4.224;2024-02-26T12:23:06;6.10;99.90
20712;DHT22;10517;50.742;4.224;2024-02-26T12:25:32;6.10;99.90
20712;DHT22;10517;50.742;4.224;2024-02-26T12:27:58;6.20;99.90
20712;DHT22;10517;50.742;4.224;2024-02-26T12:30:24;6.20;99.90
20712;DHT22;10517;50.742;4.224;2024-02-26T12:32:55;6.10;99.90
20712;DHT22;10517;50.742;4.224;2024-02-26T12:35:23;6.20;99.90
20712;DHT22;10517;50.742;4.224;2024-02-26T12:37:49;6.20;99.90
20712;DHT22;10517;50.742;4.224;2024-02-26T12:40:17;6.10;99.90
20712;DHT22;10517;50.742;4.224;2024-02-26T12:42:42;6.10;99.90
20712;DHT22;10517;50.742;4.224;2024-02-26T12:45:12;6.10;99.90
20712;DHT22;10517;50.742;4.224;2024-02-26T12:47:45;6.10;99.90
20712;DHT22;10517;50.742;4.224;2024-02-26T12:50:15;6.10;99.90
20712;DHT22;10517;50.742;4.224;2024-02-26T12:52:46;6.20;99.90
20712;DHT22;10517;50.742;4.224;2024-02-26T12:55:17;6.10;99.90
20712;DHT22;10517;50.742;4.224;2024-02-26T12:57:44;6.10;99.90
20712;DHT22;10517;50.742;4.224;2024-02-26T13:00:16;6.20;99.90
20712;DHT22;10517;50.742;4.224;2024-02-26T13:02:42;6.20;99.90
20712;DHT22;10517;50.742;4.224;2024-02-26T13:05:10;6.10;99.90
20712;DHT22;10517;50.742;4.224;2024-02-26T13:07:44;6.20;99.90
20712;DHT22;10517;50.742;4.224;2024-02-26T13:10:10;6.20;99.90
20712;DHT22;10517;50.742;4.224;2024-02-26T13:12:46;6.30;99.90
20712;DHT22;10517;50.742;4.224;2024-02-26T13:15:20;6.30;99.90
20712;DHT22;10517;50.742;4.224;2024-02-26T13:17:47;6.30;99.90
20712;DHT22;10517;50.742;4.224;2024-02-26T13:20:25;6.40;99.90
20712;DHT22;10517;50.742;4.224;2024-02-26T13:22:51;6.30;99.90
20712;DHT22;10517;50.742;4.224;2024-02-26T13:25:24;6.30;99.90
20712;DHT22;10517;50.742;4.224;2024-02-26T13:27:50;6.30;99.90
20712;DHT22;10517;50.742;4.224;2024-02-26T13:30:15;6.30;99.90
20712;DHT22;10517;50.742;4.224;2024-02-26T13:32:41;6.20;99.90
20712;DHT22;10517;50.742;4.224;2024-02-26T13:35:10;6.10;99.90
20712;DHT22;10517;50.742;4.224;2024-02-26T13:37:36;6.10;99.90
20712;DHT22;10517;50.742;4.224;2024-02-26T13:40:06;6.10;99.90
20712;DHT22;10517;50.742;4.224;2024-02-26T13:42:34;6.00;99.90
20712;DHT22;10517;50.742;4.224;2024-02-26T13:45:00;6.00;99.90
20712;DHT22;10517;50.742;4.224;2024-02-26T13:47:25;6.00;99.90
20712;DHT22;10517;50.742;4.224;2024-02-26T13:49:51;5.90;99.90
20712;DHT22;10517;50.742;4.224;2024-02-26T13:52:16;6.00;99.90
20712;DHT22;10517;50.742;4.224;2024-02-26T13:54:42;5.90;99.90
20712;DHT22;10517;50.742;4.224;2024-02-26T13:57:08;5.90;99.90
20712;DHT22;10517;50.742;4.224;2024-02-26T13:59:34;5.90;99.90
20712;DHT22;10517;50.742;4.224;2024-02-26T14:02:00;5.90;99.90
20712;DHT22;10517;50.742;4.224;2024-02-26T14:04:25;6.00;99.90
20712;DHT22;10517;50.742;4.224;2024-02-26T14:06:51;6.00;99.90
20712;DHT22;10517;50.742;4.224;2024-02-26T14:09:17;6.00;99.90
20712;DHT22;10517;50.742;4.224;2024-02-26T14:11:47;5.90;99.90
20712;DHT22;10517;50.742;4.224;2024-02-26T14:14:13;5.90;99.90
20712;DHT22;10517;50.742;4.224;2024-02-26T14:16:39;5.80;99.90
20712;DHT22;10517;50.742;4.224;2024-02-26T14:19:04;5.80;99.90
20712;DHT22;10517;50.742;4.224;2024-02-26T14:21:30;5.90;99.90
20712;DHT22;10517;50.742;4.224;2024-02-26T14:23:56;5.90;99.90
20712;DHT22;10517;50.742;4.224;2024-02-26T14:26:24;5.90;99.90
20712;DHT22;10517;50.742;4.224;2024-02-26T14:28:50;5.90;99.90
20712;DHT22;10517;50.742;4.224;2024-02-26T14:31:19;6.00;99.90
20712;DHT22;10517;50.742;4.224;2024-02-26T14:33:44;6.00;99.90
20712;DHT22;10517;50.742;4.224;2024-02-26T14:36:10;6.00;99.90
20712;DHT22;10517;50.742;4.224;2024-02-26T14:38:36;6.00;99.90
20712;DHT22;10517;50.742;4.224;2024-02-26T14:41:02;6.00;99.90
20712;DHT22;10517;50.742;4.224;2024-02-26T14:43:29;6.10;99.90
20712;DHT22;10517;50.742;4.224;2024-02-26T14:45:57;6.00;99.90
20712;DHT22;10517;50.742;4.224;2024-02-26T14:48:22;6.10;99.90
20712;DHT22;10517;50.742;4.224;2024-02-26T14:50:48;6.00;99.90
20712;DHT22;10517;50.742;4.224;2024-02-26T14:53:14;6.10;99.90
20712;DHT22;10517;50.742;4.224;2024-02-26T14:55:39;6.00;99.90
20712;DHT22;10517;50.742;4.224;2024-02-26T14:58:05;6.10;99.90
20712;DHT22;10517;50.742;4.224;2024-02-26T15:00:31;6.10;99.90
20712;DHT22;10517;50.742;4.224;2024-02-26T15:02:59;6.10;99.90
20712;DHT22;10517;50.742;4.224;2024-02-26T15:05:25;6.10;99.90
20712;DHT22;10517;50.742;4.224;2024-02-26T15:07:50;6.10;99.90
20712;DHT22;10517;50.742;4.224;2024-02-26T15:10:16;6.20;99.90
20712;DHT22;10517;50.742;4.224;2024-02-26T15:12:41;6.20;99.90
20712;DHT22;10517;50.742;4.224;2024-02-26T15:15:07;6.10;99.90
20712;DHT22;10517;50.742;4.224;2024-02-26T15:17:33;6.10;99.90
20712;DHT22;10517;50.742;4.224;2024-02-26T15:20:00;6.10;99.90
20712;DHT22;10517;50.742;4.224;2024-02-26T15:22:27;6.20;99.90
20712;DHT22;10517;50.742;4.224;2024-02-26T15:24:52;6.10;99.90
20712;DHT22;10517;50.742;4.224;2024-02-26T15:27:18;6.10;99.90
20712;DHT22;10517;50.742;4.224;2024-02-26T15:29:44;6.10;99.90
20712;DHT22;10517;50.742;4.224;2024-02-26T15:32:10;6.10;99.90
20712;DHT22;10517;50.742;4.224;2024-02-26T15:34:36;6.20;99.90
20712;DHT22;10517;50.742;4.224;2024-02-26T15:37:02;6.20;99.90
20712;DHT22;10517;50.742;4.224;2024-02-26T15:39:27;6.20;99.90
20712;DHT22;10517;50.742;4.224;2024-02-26T15:41:53;6.20;99.90
20712;DHT22;10517;50.742;4.224;2024-02-26T15:44:18;6.20;99.90